createdAt,value
2019-05-23T00:02:09.810Z,16.57
2019-05-23T00:04:45.265Z,13.43
2019-05-23T00:07:18.225Z,12.80
2019-05-23T00:09:50.200Z,18.07
2019-05-23T00:12:38.167Z,13.77
2019-05-23T00:15:15.580Z,14.17
2019-05-23T00:17:46.687Z,13.97
2019-05-23T00:20:17.443Z,15.17
2019-05-23T00:22:48.019Z,15.23
2019-05-23T00:25:20.212Z,14.70
2019-05-23T00:27:50.328Z,14.73
2019-05-23T00:30:29.837Z,15.00
2019-05-23T00:33:01.372Z,13.73
2019-05-23T00:35:32.586Z,15.03
2019-05-23T00:38:04.408Z,14.03
2019-05-23T00:40:35.065Z,16.77
2019-05-23T00:43:05.919Z,14.90
2019-05-23T00:45:36.810Z,14.63
2019-05-23T00:48:07.646Z,14.97
2019-05-23T00:50:37.731Z,15.57
2019-05-23T00:53:08.278Z,17.53
2019-05-23T00:55:38.840Z,14.10
2019-05-23T00:58:10.225Z,16.17
2019-05-23T01:00:40.653Z,15.63
2019-05-23T01:03:11.697Z,18.03
2019-05-23T01:05:43.334Z,16.53
2019-05-23T01:08:14.716Z,14.80
2019-05-23T01:10:45.721Z,14.90
2019-05-23T01:13:16.558Z,15.73
2019-05-23T01:15:46.810Z,15.97
2019-05-23T01:18:17.574Z,18.67
2019-05-23T01:21:09.425Z,17.17
2019-05-23T01:23:43.083Z,16.30
2019-05-23T01:26:14.355Z,16.20
2019-05-23T01:28:47.040Z,18.03
2019-05-23T01:31:20.546Z,20.87
2019-05-23T01:33:53.331Z,17.80
2019-05-23T01:36:24.534Z,16.83
2019-05-23T01:38:54.818Z,19.33
2019-05-23T01:41:25.264Z,17.43
2019-05-23T01:43:56.463Z,16.57
2019-05-23T01:46:28.466Z,18.73
2019-05-23T01:48:58.994Z,17.67
2019-05-23T01:51:29.357Z,17.40
2019-05-23T01:53:59.519Z,16.53
2019-05-23T01:56:29.921Z,17.30
2019-05-23T01:59:00.460Z,18.03
2019-05-23T02:01:30.704Z,17.33
2019-05-23T02:04:00.841Z,17.00
2019-05-23T02:06:30.901Z,15.50
2019-05-23T02:09:01.639Z,17.97
2019-05-23T02:11:32.165Z,19.20
2019-05-23T02:14:02.330Z,17.77
2019-05-23T02:16:33.936Z,19.00
2019-05-23T02:19:04.656Z,16.60
2019-05-23T02:21:35.562Z,17.40
2019-05-23T02:24:07.577Z,16.67
2019-05-23T02:26:38.571Z,17.20
2019-05-23T02:29:10.281Z,20.93
2019-05-23T02:31:41.385Z,16.77
2019-05-23T02:34:12.368Z,16.20
2019-05-23T02:36:42.768Z,17.93
2019-05-23T02:39:38.177Z,18.30
2019-05-23T02:42:22.572Z,18.33
2019-05-23T02:44:53.161Z,18.27
2019-05-23T02:47:34.182Z,18.77
2019-05-23T02:50:04.979Z,21.57
2019-05-23T02:52:42.825Z,19.43
2019-05-23T02:55:20.388Z,21.00
2019-05-23T02:57:52.331Z,21.13
2019-05-23T03:01:03.590Z,20.53
2019-05-23T03:03:35.484Z,23.77
2019-05-23T03:06:11.147Z,22.53
2019-05-23T03:08:44.193Z,22.17
2019-05-23T03:11:35.576Z,23.70
2019-05-23T03:14:06.518Z,24.73
2019-05-23T03:16:39.701Z,28.50
2019-05-23T03:19:17.541Z,26.30
2019-05-23T03:21:49.168Z,24.70
2019-05-23T03:24:20.271Z,22.07
2019-05-23T03:27:15.571Z,27.17
2019-05-23T03:29:47.119Z,28.07
2019-05-23T03:32:39.374Z,26.77
2019-05-23T03:35:15.468Z,26.27
2019-05-23T03:37:46.230Z,24.50
2019-05-23T03:40:16.971Z,24.93
2019-05-23T03:42:47.015Z,22.87
2019-05-23T03:45:20.562Z,27.87
2019-05-23T03:47:50.491Z,26.60
2019-05-23T03:50:21.804Z,28.20
2019-05-23T03:52:52.021Z,25.47
2019-05-23T03:55:23.965Z,28.00
2019-05-23T03:57:54.907Z,25.90
2019-05-23T04:00:27.288Z,25.03
2019-05-23T04:02:57.490Z,23.40
2019-05-23T04:05:27.350Z,23.77
2019-05-23T04:07:58.873Z,28.50
2019-05-23T04:10:28.800Z,24.90
2019-05-23T04:12:58.698Z,27.73
2019-05-23T04:15:28.580Z,25.80
2019-05-23T04:17:58.564Z,25.80
2019-05-23T04:20:29.091Z,25.37
2019-05-23T04:22:59.618Z,26.63
2019-05-23T04:25:29.592Z,25.87
2019-05-23T04:27:59.779Z,26.70
2019-05-23T04:30:29.896Z,25.60
2019-05-23T04:33:00.542Z,28.60
2019-05-23T04:35:31.095Z,24.33
2019-05-23T04:38:01.605Z,26.17
2019-05-23T04:40:31.938Z,26.00
2019-05-23T04:43:01.954Z,23.97
2019-05-23T04:45:33.616Z,26.07
2019-05-23T04:48:04.573Z,26.57
2019-05-23T04:50:34.586Z,26.47
2019-05-23T04:53:04.425Z,22.73
2019-05-23T04:55:35.057Z,25.13
2019-05-23T04:58:05.662Z,22.97
2019-05-23T05:00:36.131Z,26.90
2019-05-23T05:03:07.688Z,24.63
2019-05-23T05:05:37.740Z,24.40
2019-05-23T05:08:07.632Z,23.03
2019-05-23T05:10:39.484Z,24.60
2019-05-23T05:13:09.747Z,23.67
2019-05-23T05:15:39.850Z,25.23
2019-05-23T05:18:10.178Z,22.27
2019-05-23T05:20:40.760Z,24.20
2019-05-23T05:23:10.737Z,22.87
2019-05-23T05:25:40.887Z,25.03
2019-05-23T05:28:11.007Z,23.67
2019-05-23T05:30:41.099Z,21.43
2019-05-23T05:33:11.693Z,21.40
2019-05-23T05:35:41.692Z,22.97
2019-05-23T05:38:12.806Z,23.23
2019-05-23T05:40:43.021Z,23.70
2019-05-23T05:43:13.343Z,24.87
2019-05-23T05:45:44.118Z,24.40
2019-05-23T05:48:14.090Z,22.53
2019-05-23T05:50:44.426Z,21.27
2019-05-23T05:53:14.722Z,21.53
2019-05-23T05:55:44.787Z,21.43
2019-05-23T05:58:14.923Z,21.40
2019-05-23T06:00:52.779Z,23.27
2019-05-23T06:03:23.202Z,24.77
2019-05-23T06:06:02.653Z,23.23
2019-05-23T06:08:33.939Z,24.93
2019-05-23T06:11:04.515Z,22.80
2019-05-23T06:13:37.115Z,22.70
2019-05-23T06:16:07.084Z,22.60
2019-05-23T06:18:37.096Z,23.90
2019-05-23T06:21:07.891Z,22.93
2019-05-23T06:23:38.037Z,22.37
2019-05-23T06:26:08.677Z,23.87
2019-05-23T06:28:40.533Z,24.00
2019-05-23T06:31:11.361Z,20.90
2019-05-23T06:33:41.532Z,21.57
2019-05-23T06:36:12.328Z,25.50
2019-05-23T06:38:42.878Z,23.73
2019-05-23T06:41:13.402Z,21.30
2019-05-23T06:43:43.883Z,23.07
2019-05-23T06:46:14.896Z,24.20
2019-05-23T06:48:45.916Z,23.40
2019-05-23T06:51:16.209Z,21.97
2019-05-23T06:53:46.247Z,20.30
2019-05-23T06:56:16.539Z,20.77
2019-05-23T06:58:46.833Z,21.83
2019-05-23T07:01:17.046Z,20.13
2019-05-23T07:03:48.368Z,21.73
2019-05-23T07:06:21.586Z,24.47
2019-05-23T07:08:51.603Z,22.20
2019-05-23T07:11:23.631Z,19.23
2019-05-23T07:13:54.552Z,20.50
2019-05-23T07:16:25.004Z,20.57
2019-05-23T07:18:55.431Z,18.57
2019-05-23T07:21:25.492Z,19.80
2019-05-23T07:23:55.661Z,19.30
2019-05-23T07:26:26.044Z,19.03
2019-05-23T07:28:56.231Z,19.07
2019-05-23T07:31:26.390Z,20.63
2019-05-23T07:34:01.846Z,16.20
2019-05-23T07:36:28.922Z,16.33
2019-05-23T07:38:58.853Z,17.90
2019-05-23T07:41:29.341Z,15.50
2019-05-23T07:44:01.330Z,16.73
2019-05-23T07:46:31.447Z,16.60
2019-05-23T07:49:02.159Z,14.90
2019-05-23T07:51:32.539Z,13.97
2019-05-23T07:54:12.930Z,14.87
2019-05-23T07:56:43.584Z,15.03
2019-05-23T07:59:13.933Z,16.47
2019-05-23T08:01:48.053Z,14.40
2019-05-23T08:04:22.106Z,13.03
2019-05-23T08:06:51.733Z,15.37
2019-05-23T08:09:23.519Z,15.13
2019-05-23T08:11:54.055Z,15.17
2019-05-23T08:14:24.554Z,16.43
2019-05-23T08:16:54.501Z,13.30
2019-05-23T08:19:24.705Z,13.63
2019-05-23T08:21:54.681Z,14.43
2019-05-23T08:24:25.055Z,13.97
2019-05-23T08:26:55.887Z,14.27
2019-05-23T08:29:26.953Z,13.67
2019-05-23T08:31:58.531Z,12.73
2019-05-23T08:34:41.432Z,14.77
2019-05-23T08:37:02.438Z,12.00
2019-05-23T08:39:32.548Z,11.53
2019-05-23T08:42:02.591Z,12.20
2019-05-23T08:44:34.643Z,10.90
2019-05-23T08:47:07.460Z,12.70
2019-05-23T08:49:37.640Z,13.60
2019-05-23T08:52:08.267Z,11.70
2019-05-23T08:54:38.434Z,10.00
2019-05-23T08:57:09.377Z,10.93
2019-05-23T08:59:39.922Z,11.57
2019-05-23T09:02:12.249Z,11.87
2019-05-23T09:05:02.275Z,12.17
2019-05-23T09:07:16.552Z,10.30
2019-05-23T09:09:47.108Z,9.40
2019-05-23T09:12:17.907Z,9.73
2019-05-23T09:14:48.303Z,10.33
2019-05-23T09:17:19.422Z,9.40
2019-05-23T09:19:49.972Z,10.30
2019-05-23T09:22:20.219Z,10.27
2019-05-23T09:24:50.530Z,9.97
2019-05-23T09:27:20.581Z,9.67
2019-05-23T09:29:52.188Z,8.50
2019-05-23T09:32:22.221Z,8.50
2019-05-23T09:34:52.414Z,8.33
2019-05-23T09:37:22.418Z,11.33
2019-05-23T09:39:52.480Z,10.07
2019-05-23T09:42:22.790Z,9.67
2019-05-23T09:44:53.124Z,8.87
2019-05-23T09:47:23.457Z,11.97
2019-05-23T09:49:54.372Z,8.47
2019-05-23T09:52:25.319Z,8.87
2019-05-23T09:54:55.220Z,8.87
2019-05-23T09:57:25.314Z,8.90
2019-05-23T09:59:56.999Z,9.33
2019-05-23T10:02:28.539Z,8.53
2019-05-23T10:04:59.269Z,9.40
2019-05-23T10:07:29.677Z,9.93
2019-05-23T10:10:00.030Z,8.80
2019-05-23T10:12:30.448Z,7.77
2019-05-23T10:15:00.891Z,8.40
2019-05-23T10:17:31.495Z,6.63
2019-05-23T10:20:01.892Z,8.43
2019-05-23T10:22:32.442Z,7.80
2019-05-23T10:25:02.497Z,6.77
2019-05-23T10:27:32.768Z,9.20
2019-05-23T10:30:03.236Z,7.90
2019-05-23T10:32:33.690Z,6.43
2019-05-23T10:35:04.144Z,6.20
2019-05-23T10:37:35.394Z,6.63
2019-05-23T10:40:06.813Z,8.20
2019-05-23T10:42:38.299Z,6.83
2019-05-23T10:45:09.666Z,5.83
2019-05-23T10:47:39.935Z,6.05
2019-05-23T10:50:17.163Z,5.60
2019-05-23T10:52:49.440Z,9.45
2019-05-23T10:55:21.239Z,5.75
2019-05-23T10:58:13.722Z,5.10
2019-05-23T11:00:47.782Z,7.20
2019-05-23T11:03:18.160Z,8.67
2019-05-23T11:05:50.808Z,10.08
2019-05-23T11:08:27.638Z,11.20
2019-05-23T11:10:53.959Z,7.75
2019-05-23T11:13:24.375Z,8.40
2019-05-23T11:15:54.764Z,7.22
2019-05-23T11:18:25.361Z,6.45
2019-05-23T11:20:55.505Z,7.40
2019-05-23T11:23:29.659Z,8.30
2019-05-23T11:26:01.343Z,7.60
2019-05-23T11:28:34.861Z,7.10
2019-05-23T11:31:06.349Z,6.65
2019-05-23T11:33:36.897Z,6.90
2019-05-23T11:36:07.398Z,7.12
2019-05-23T11:38:37.710Z,7.47
2019-05-23T11:41:07.778Z,7.03
2019-05-23T11:43:39.779Z,7.67
2019-05-23T11:46:29.873Z,5.83
2019-05-23T11:49:00.542Z,5.70
2019-05-23T11:52:24.510Z,6.10
2019-05-23T11:54:54.178Z,5.33
2019-05-23T11:57:24.039Z,5.53
2019-05-23T11:59:54.422Z,6.23
2019-05-23T12:02:30.417Z,4.92
2019-05-23T12:05:03.151Z,5.17
2019-05-23T12:07:35.016Z,4.53
2019-05-23T12:10:05.611Z,5.22
2019-05-23T12:12:35.543Z,4.90
2019-05-23T12:15:08.217Z,4.50
2019-05-23T12:17:38.063Z,5.60
2019-05-23T12:20:09.172Z,5.58
2019-05-23T12:22:39.030Z,5.15
2019-05-23T12:25:21.440Z,5.20
2019-05-23T12:27:42.960Z,5.35
2019-05-23T12:30:16.983Z,4.65
2019-05-23T12:32:49.632Z,4.78
2019-05-23T12:35:22.180Z,4.53
2019-05-23T12:37:53.543Z,5.20
2019-05-23T12:40:25.501Z,5.42
2019-05-23T12:42:56.834Z,4.87
2019-05-23T12:45:31.360Z,4.22
2019-05-23T12:48:38.721Z,4.78
2019-05-23T12:51:12.014Z,4.37
2019-05-23T12:53:43.676Z,3.87
2019-05-23T12:56:15.037Z,4.12
2019-05-23T12:58:48.161Z,3.92
2019-05-23T13:01:20.419Z,5.35
2019-05-23T13:03:52.287Z,4.00
2019-05-23T13:06:24.294Z,4.35
2019-05-23T13:08:55.706Z,4.03
2019-05-23T13:11:27.881Z,4.78
2019-05-23T13:13:59.175Z,4.83
2019-05-23T13:16:31.879Z,4.42
2019-05-23T13:19:03.963Z,5.22
2019-05-23T13:21:35.895Z,4.10
2019-05-23T13:24:07.543Z,5.95
2019-05-23T13:26:37.327Z,3.62
2019-05-23T13:29:07.420Z,4.62
2019-05-23T13:31:37.195Z,3.70
2019-05-23T13:34:07.318Z,5.80
2019-05-23T13:36:37.060Z,3.85
2019-05-23T13:39:09.918Z,4.20
2019-05-23T13:41:40.219Z,3.95
2019-05-23T13:44:10.102Z,4.12
2019-05-23T13:46:40.489Z,3.70
2019-05-23T13:49:10.294Z,3.92
2019-05-23T13:51:40.601Z,4.03
2019-05-23T13:54:10.677Z,4.97
2019-05-23T13:56:41.827Z,3.77
2019-05-23T13:59:11.821Z,3.60
2019-05-23T14:01:41.922Z,4.28
2019-05-23T14:04:11.907Z,4.40
2019-05-23T14:06:41.730Z,4.00
2019-05-23T14:09:11.661Z,4.40
2019-05-23T14:11:41.356Z,4.10
2019-05-23T14:14:11.430Z,4.10
2019-05-23T14:16:57.200Z,4.40
2019-05-23T14:19:29.306Z,4.50
2019-05-23T14:21:58.168Z,3.90
2019-05-23T14:24:28.032Z,4.40
2019-05-23T14:27:05.141Z,4.70
2019-05-23T14:29:35.254Z,4.20
2019-05-23T14:32:37.375Z,4.28
2019-05-23T14:35:07.589Z,4.08
2019-05-23T14:37:42.589Z,4.00
2019-05-23T14:40:14.788Z,4.17
2019-05-23T14:42:59.430Z,4.85
2019-05-23T14:45:57.321Z,3.98
2019-05-23T14:48:36.870Z,4.35
2019-05-23T14:51:17.167Z,4.55
2019-05-23T14:53:51.124Z,3.98
2019-05-23T14:56:22.360Z,3.67
2019-05-23T14:58:52.468Z,4.25
2019-05-23T15:01:24.662Z,4.62
2019-05-23T15:03:55.190Z,4.40
2019-05-23T15:06:25.238Z,4.40
2019-05-23T15:08:55.019Z,4.87
2019-05-23T15:11:24.761Z,6.70
2019-05-23T15:13:54.554Z,4.53
2019-05-23T15:16:24.528Z,4.42
2019-05-23T15:18:55.879Z,5.45
2019-05-23T15:21:25.627Z,4.30
2019-05-23T15:23:55.279Z,5.90
2019-05-23T15:26:25.376Z,5.10
2019-05-23T15:28:55.111Z,4.17
2019-05-23T15:31:25.207Z,4.03
2019-05-23T15:33:54.977Z,4.65
2019-05-23T15:36:24.760Z,5.10
2019-05-23T15:39:08.100Z,4.40
2019-05-23T15:41:25.872Z,4.70
2019-05-23T15:43:56.092Z,4.00
2019-05-23T15:46:26.193Z,3.92
2019-05-23T15:48:55.844Z,4.08
2019-05-23T15:51:31.168Z,4.00
2019-05-23T15:54:25.441Z,3.75
2019-05-23T15:57:22.888Z,4.42
2019-05-23T16:00:17.895Z,3.95
2019-05-23T16:02:56.415Z,4.60
2019-05-23T16:05:26.548Z,3.83
2019-05-23T16:07:56.400Z,4.55
2019-05-23T16:10:27.400Z,4.33
2019-05-23T16:12:57.585Z,4.37
2019-05-23T16:15:27.399Z,4.08
2019-05-23T16:17:57.279Z,4.03
2019-05-23T16:20:27.857Z,3.87
2019-05-23T16:22:57.708Z,4.05
2019-05-23T16:25:27.756Z,3.60
2019-05-23T16:27:57.471Z,4.50
2019-05-23T16:30:27.186Z,3.35
2019-05-23T16:32:56.758Z,3.58
2019-05-23T16:35:26.674Z,3.75
2019-05-23T16:37:56.451Z,3.50
2019-05-23T16:40:26.317Z,5.17
2019-05-23T16:42:55.973Z,3.80
2019-05-23T16:45:25.554Z,3.83
2019-05-23T16:47:55.182Z,4.00
2019-05-23T16:50:24.898Z,3.17
2019-05-23T16:52:54.756Z,6.72
2019-05-23T16:55:35.064Z,3.33
2019-05-23T16:58:11.782Z,3.20
2019-05-23T17:00:59.414Z,4.83
2019-05-23T17:03:57.668Z,4.40
2019-05-23T17:06:35.129Z,3.95
2019-05-23T17:09:24.008Z,3.47
2019-05-23T17:12:12.639Z,3.73
2019-05-23T17:14:56.047Z,3.35
2019-05-23T17:18:01.304Z,2.93
2019-05-23T17:20:30.313Z,3.33
2019-05-23T17:23:06.374Z,3.30
2019-05-23T17:25:54.107Z,3.43
2019-05-23T17:28:42.961Z,2.93
2019-05-23T17:31:14.974Z,3.27
2019-05-23T17:33:44.818Z,3.30
2019-05-23T17:36:14.604Z,3.20
2019-05-23T17:38:44.745Z,3.67
2019-05-23T17:41:14.925Z,3.07
2019-05-23T17:43:44.823Z,2.80
2019-05-23T17:46:14.384Z,2.83
2019-05-23T17:48:44.179Z,2.47
2019-05-23T17:51:13.775Z,3.50
2019-05-23T17:53:43.633Z,2.93
2019-05-23T17:56:13.426Z,3.50
2019-05-23T17:58:43.459Z,5.37
2019-05-23T18:01:13.082Z,3.30
2019-05-23T18:03:43.170Z,10.50
2019-05-23T18:06:13.493Z,5.87
2019-05-23T18:08:43.101Z,6.07
2019-05-23T18:11:12.715Z,6.00
2019-05-23T18:13:42.765Z,5.53
2019-05-23T18:16:13.491Z,5.33
2019-05-23T18:18:43.797Z,4.47
2019-05-23T18:21:13.381Z,3.60
2019-05-23T18:23:43.444Z,5.03
2019-05-23T18:26:13.658Z,3.53
2019-05-23T18:28:43.863Z,5.83
2019-05-23T18:31:18.426Z,5.00
2019-05-23T18:33:48.615Z,3.40
2019-05-23T18:36:19.828Z,3.03
2019-05-23T18:38:49.814Z,3.13
2019-05-23T18:41:19.918Z,2.97
2019-05-23T18:43:50.374Z,3.67
2019-05-23T18:46:28.850Z,4.70
2019-05-23T18:48:58.563Z,2.57
2019-05-23T18:51:28.912Z,3.50
2019-05-23T18:53:58.700Z,2.67
2019-05-23T18:56:28.304Z,2.70
2019-05-23T18:58:58.138Z,3.23
2019-05-23T19:01:28.049Z,4.17
2019-05-23T19:03:57.716Z,3.93
2019-05-23T19:06:27.477Z,2.53
2019-05-23T19:08:57.616Z,2.67
2019-05-23T19:11:27.832Z,2.03
2019-05-23T19:13:57.807Z,2.87
2019-05-23T19:16:29.368Z,3.10
2019-05-23T19:19:00.082Z,2.37
2019-05-23T19:21:31.503Z,2.70
2019-05-23T19:24:01.682Z,3.40
2019-05-23T19:26:32.505Z,5.93
2019-05-23T19:29:02.264Z,4.00
2019-05-23T19:31:32.754Z,3.60
2019-05-23T19:34:02.909Z,4.10
2019-05-23T19:36:33.871Z,4.80
2019-05-23T19:39:03.461Z,5.07
2019-05-23T19:41:37.258Z,4.13
2019-05-23T19:44:05.954Z,2.53
2019-05-23T19:46:35.991Z,5.10
2019-05-23T19:49:07.152Z,2.70
2019-05-23T19:51:37.013Z,2.87
2019-05-23T19:54:07.093Z,4.23
2019-05-23T19:56:37.190Z,3.67
2019-05-23T19:59:06.883Z,3.50
2019-05-23T20:02:07.949Z,6.40
2019-05-23T20:04:40.586Z,5.27
2019-05-23T20:07:14.647Z,2.80
2019-05-23T20:09:43.759Z,4.57
2019-05-23T20:12:14.952Z,5.40
2019-05-23T20:14:45.077Z,3.37
2019-05-23T20:17:16.268Z,4.17
2019-05-23T20:19:50.165Z,4.07
2019-05-23T20:22:17.922Z,2.77
2019-05-23T20:24:47.992Z,3.77
2019-05-23T20:27:17.586Z,2.60
2019-05-23T20:29:47.272Z,2.73
2019-05-23T20:32:17.816Z,4.03
2019-05-23T20:34:47.422Z,3.07
2019-05-23T20:37:16.997Z,5.03
2019-05-23T20:39:46.679Z,3.50
2019-05-23T20:42:16.530Z,3.60
2019-05-23T20:44:46.227Z,3.10
2019-05-23T20:47:15.912Z,5.60
2019-05-23T20:49:45.623Z,3.63
2019-05-23T20:52:15.658Z,2.97
2019-05-23T20:54:45.517Z,5.90
2019-05-23T20:57:15.141Z,4.00
2019-05-23T20:59:44.765Z,4.87
2019-05-23T21:02:14.673Z,4.37
2019-05-23T21:04:44.476Z,5.97
2019-05-23T21:07:14.190Z,4.13
2019-05-23T21:09:43.979Z,4.17
2019-05-23T21:12:28.802Z,4.13
2019-05-23T21:14:45.551Z,3.70
2019-05-23T21:17:15.322Z,6.80
2019-05-23T21:19:45.046Z,5.03
2019-05-23T21:22:14.763Z,6.43
2019-05-23T21:24:44.415Z,2.83
2019-05-23T21:27:14.051Z,3.73
2019-05-23T21:29:43.828Z,4.13
2019-05-23T21:32:13.604Z,4.20
2019-05-23T21:34:43.275Z,4.87
2019-05-23T21:37:13.029Z,5.87
2019-05-23T21:39:43.436Z,5.70
2019-05-23T21:42:13.200Z,4.20
2019-05-23T21:44:42.872Z,3.40
2019-05-23T21:47:12.641Z,6.57
2019-05-23T21:49:42.281Z,4.67
2019-05-23T21:52:12.351Z,4.13
2019-05-23T21:54:41.975Z,6.50
2019-05-23T21:57:11.630Z,4.80
2019-05-23T21:59:41.309Z,5.73
2019-05-23T22:02:21.262Z,4.57
2019-05-23T22:05:09.824Z,4.53
2019-05-23T22:07:42.798Z,4.57
2019-05-23T22:10:13.074Z,5.77
2019-05-23T22:12:42.755Z,5.53
2019-05-23T22:15:16.363Z,7.23
2019-05-23T22:17:46.362Z,5.50
2019-05-23T22:20:16.240Z,4.50
2019-05-23T22:22:45.877Z,5.47
2019-05-23T22:25:18.710Z,4.73
2019-05-23T22:27:48.395Z,4.53
2019-05-23T22:30:18.444Z,7.40
2019-05-23T22:32:48.612Z,5.43
2019-05-23T22:35:20.125Z,4.67
2019-05-23T22:37:49.817Z,5.30
2019-05-23T22:40:19.393Z,6.70
2019-05-23T22:42:49.103Z,5.00
2019-05-23T22:45:21.612Z,8.10
2019-05-23T22:47:51.240Z,4.53
2019-05-23T22:50:20.793Z,6.97
2019-05-23T22:52:50.424Z,5.63
2019-05-23T22:55:20.139Z,9.60
2019-05-23T22:57:49.755Z,7.13
2019-05-23T23:00:26.148Z,7.33
2019-05-23T23:02:55.814Z,4.80
2019-05-23T23:05:25.534Z,7.10
2019-05-23T23:07:55.223Z,6.57
2019-05-23T23:10:24.814Z,5.23
2019-05-23T23:12:54.367Z,5.50
2019-05-23T23:15:24.458Z,4.37
2019-05-23T23:17:54.274Z,5.80
2019-05-23T23:20:23.809Z,5.83
2019-05-23T23:22:53.722Z,6.80
2019-05-23T23:25:23.301Z,7.63
2019-05-23T23:27:52.883Z,5.03
2019-05-23T23:30:25.704Z,5.83
2019-05-23T23:32:55.343Z,4.57
2019-05-23T23:35:25.071Z,4.87
2019-05-23T23:37:54.780Z,4.30
2019-05-23T23:40:24.672Z,6.63
2019-05-23T23:42:54.254Z,8.53
2019-05-23T23:45:43.222Z,4.17
2019-05-23T23:48:30.321Z,6.13
2019-05-23T23:51:17.892Z,7.23
2019-05-23T23:54:05.448Z,5.93
2019-05-23T23:56:53.366Z,4.40
2019-05-23T23:59:21.996Z,4.43
